KMMK 220353Z AUTO 11004KT 8SM OVC036 01/M02 A3018 RMK AO2 SLP221 T00061017